Search for airport 
image banner adimage banner adimage banner ad
image banner ad

KWHP - Whiteman

Located in Los Angeles, United States

ICAO - WHP, IATA - WHP

Data provided by Airmate  

General information

Coordinates: N34°15'34" W118°24'48"
Elevation is 1003 feet MSL.
Magnetic variation is 14° East
View others Airports in California

Operational data

Special qualification required
Current time UTC:
Current local time:
Weather
METAR: KWHP 212055Z 12007KT 10SM SKC 35/03 A3011
View NOTAMs / SUP AIP / TFR affecting this airport [VIEW]
Communications frequencies: [VIEW]

Runways:

RWY identifierQFULength (ft)Width (ft)SurfaceLDA (ft)
12139°412075ASPH3181
30319°412075ASPH3462

Airport contact information

Address: Los Angeles United States

Other aviation service providers

Flight schools

Vista Aviation, Inc.

Vista Aviation, Inc.

Rotor F/X Llc

Rotor F/X Llc
info@rotorfx.com+1(818)462-3333

Satellite view of KWHP